sensor_id;sensor_type;location;lat;lon;timestamp;pressure;altitude;pressure_sealevel;temperature;humidity
23253;BME280;11795;47.054;15.408;2023-04-26T00:00:00;97000;;;8.9;63.4
23253;BME280;11795;47.054;15.408;2023-04-26T00:02:01;97010;;;8.7;64.0
23253;BME280;11795;47.054;15.408;2023-04-26T00:04:01;97000;;;8.9;63.8
23253;BME280;11795;47.054;15.408;2023-04-26T00:06:04;97010;;;8.7;64.0
23253;BME280;11795;47.054;15.408;2023-04-26T00:08:00;97010;;;8.6;64.4
23253;BME280;11795;47.054;15.408;2023-04-26T00:10:00;97000;;;8.8;64.0
23253;BME280;11795;47.054;15.408;2023-04-26T00:12:01;97010;;;8.6;64.6
23253;BME280;11795;47.054;15.408;2023-04-26T00:14:00;97010;;;8.7;64.6
23253;BME280;11795;47.054;15.408;2023-04-26T00:16:00;97000;;;8.6;64.8
23253;BME280;11795;47.054;15.408;2023-04-26T00:18:00;97010;;;8.4;65.6
23253;BME280;11795;47.054;15.408;2023-04-26T00:20:01;97010;;;8.5;65.7
23253;BME280;11795;47.054;15.408;2023-04-26T00:22:01;97010;;;8.3;66.3
23253;BME280;11795;47.054;15.408;2023-04-26T00:24:00;97010;;;8.4;66.3
23253;BME280;11795;47.054;15.408;2023-04-26T00:26:01;97010;;;8.4;66.2
23253;BME280;11795;47.054;15.408;2023-04-26T00:28:00;97010;;;8.3;66.5
23253;BME280;11795;47.054;15.408;2023-04-26T00:30:00;97010;;;8.4;66.3
23253;BME280;11795;47.054;15.408;2023-04-26T00:32:00;97010;;;8.3;66.7
23253;BME280;11795;47.054;15.408;2023-04-26T00:34:00;97010;;;8.4;66.5
23253;BME280;11795;47.054;15.408;2023-04-26T00:36:00;97010;;;8.1;67.5
23253;BME280;11795;47.054;15.408;2023-04-26T00:38:00;97010;;;8.1;67.7
23253;BME280;11795;47.054;15.408;2023-04-26T00:40:00;97020;;;8.0;67.7
23253;BME280;11795;47.054;15.408;2023-04-26T00:42:01;97010;;;8.0;67.9
23253;BME280;11795;47.054;15.408;2023-04-26T00:44:00;97010;;;8.0;68.1
23253;BME280;11795;47.054;15.408;2023-04-26T00:46:00;97010;;;7.9;68.6
23253;BME280;11795;47.054;15.408;2023-04-26T00:48:01;97010;;;7.9;68.4
23253;BME280;11795;47.054;15.408;2023-04-26T00:50:00;97010;;;8.1;67.8
23253;BME280;11795;47.054;15.408;2023-04-26T00:52:01;97010;;;7.9;68.2
23253;BME280;11795;47.054;15.408;2023-04-26T00:54:00;97000;;;8.0;68.0
23253;BME280;11795;47.054;15.408;2023-04-26T00:56:00;97000;;;8.0;67.8
23253;BME280;11795;47.054;15.408;2023-04-26T00:58:01;97000;;;7.9;68.0
23253;BME280;11795;47.054;15.408;2023-04-26T01:00:00;97000;;;8.1;67.3
23253;BME280;11795;47.054;15.408;2023-04-26T01:02:01;97000;;;7.9;67.8
23253;BME280;11795;47.054;15.408;2023-04-26T01:04:01;97010;;;8.0;67.9
23253;BME280;11795;47.054;15.408;2023-04-26T01:06:00;97010;;;7.9;67.8
23253;BME280;11795;47.054;15.408;2023-04-26T01:08:01;97010;;;7.7;68.5
23253;BME280;11795;47.054;15.408;2023-04-26T01:10:01;97010;;;7.9;68.0
23253;BME280;11795;47.054;15.408;2023-04-26T01:12:01;97010;;;7.7;68.6
23253;BME280;11795;47.054;15.408;2023-04-26T01:14:01;97010;;;7.8;68.5
23253;BME280;11795;47.054;15.408;2023-04-26T01:16:01;97010;;;7.7;68.5
23253;BME280;11795;47.054;15.408;2023-04-26T01:18:02;97020;;;7.7;68.7
23253;BME280;11795;47.054;15.408;2023-04-26T01:20:00;97020;;;7.8;68.4
23253;BME280;11795;47.054;15.408;2023-04-26T01:22:00;97020;;;7.6;69.1
23253;BME280;11795;47.054;15.408;2023-04-26T01:24:00;97020;;;7.4;70.7
23253;BME280;11795;47.054;15.408;2023-04-26T01:26:00;97010;;;7.5;70.3
23253;BME280;11795;47.054;15.408;2023-04-26T01:28:00;97010;;;7.4;70.6
23253;BME280;11795;47.054;15.408;2023-04-26T01:30:00;97010;;;7.7;69.6
23253;BME280;11795;47.054;15.408;2023-04-26T01:32:01;97010;;;7.6;69.8
23253;BME280;11795;47.054;15.408;2023-04-26T01:34:00;97010;;;7.6;70.0
23253;BME280;11795;47.054;15.408;2023-04-26T01:36:00;97010;;;7.6;70.0
23253;BME280;11795;47.054;15.408;2023-04-26T01:38:00;97020;;;7.5;70.2
23253;BME280;11795;47.054;15.408;2023-04-26T01:40:01;97020;;;7.6;70.0
23253;BME280;11795;47.054;15.408;2023-04-26T01:42:02;97020;;;7.4;71.2
23253;BME280;11795;47.054;15.408;2023-04-26T01:44:00;97020;;;7.5;70.8
23253;BME280;11795;47.054;15.408;2023-04-26T01:46:01;97030;;;7.5;70.6
23253;BME280;11795;47.054;15.408;2023-04-26T01:48:00;97030;;;7.3;71.2
23253;BME280;11795;47.054;15.408;2023-04-26T01:50:00;97030;;;7.4;70.9
23253;BME280;11795;47.054;15.408;2023-04-26T01:52:01;97040;;;7.2;71.7
23253;BME280;11795;47.054;15.408;2023-04-26T01:54:01;97040;;;7.3;71.5
23253;BME280;11795;47.054;15.408;2023-04-26T01:56:01;97040;;;7.3;71.0
23253;BME280;11795;47.054;15.408;2023-04-26T01:58:01;97050;;;7.1;71.7
23253;BME280;11795;47.054;15.408;2023-04-26T02:00:01;97050;;;7.2;71.3
23253;BME280;11795;47.054;15.408;2023-04-26T02:02:00;97050;;;7.1;71.8
23253;BME280;11795;47.054;15.408;2023-04-26T02:04:00;97050;;;7.1;72.0
23253;BME280;11795;47.054;15.408;2023-04-26T02:06:00;97050;;;7.1;71.6
23253;BME280;11795;47.054;15.408;2023-04-26T02:08:00;97050;;;7.1;71.7
23253;BME280;11795;47.054;15.408;2023-04-26T02:10:00;97050;;;7.2;71.3
23253;BME280;11795;47.054;15.408;2023-04-26T02:12:00;97050;;;7.1;71.6
23253;BME280;11795;47.054;15.408;2023-04-26T02:14:01;97060;;;7.1;71.8
23253;BME280;11795;47.054;15.408;2023-04-26T02:16:00;97060;;;7.0;71.9
23253;BME280;11795;47.054;15.408;2023-04-26T02:18:02;97070;;;6.8;72.6
23253;BME280;11795;47.054;15.408;2023-04-26T02:20:00;97060;;;7.0;72.1
23253;BME280;11795;47.054;15.408;2023-04-26T02:22:00;97070;;;6.8;72.5
23253;BME280;11795;47.054;15.408;2023-04-26T02:24:00;97060;;;6.8;72.6
23253;BME280;11795;47.054;15.408;2023-04-26T02:26:00;97060;;;6.8;72.5
23253;BME280;11795;47.054;15.408;2023-04-26T02:28:00;97060;;;6.7;72.9
23253;BME280;11795;47.054;15.408;2023-04-26T02:30:00;97050;;;6.9;72.3
23253;BME280;11795;47.054;15.408;2023-04-26T02:32:00;97060;;;6.8;72.7
23253;BME280;11795;47.054;15.408;2023-04-26T02:34:01;97060;;;6.8;72.7
23253;BME280;11795;47.054;15.408;2023-04-26T02:36:01;97050;;;6.9;72.0
23253;BME280;11795;47.054;15.408;2023-04-26T02:38:00;97050;;;6.8;72.4
23253;BME280;11795;47.054;15.408;2023-04-26T02:40:00;97050;;;7.0;72.0
23253;BME280;11795;47.054;15.408;2023-04-26T02:42:00;97050;;;6.8;72.6
23253;BME280;11795;47.054;15.408;2023-04-26T02:44:00;97060;;;6.8;72.7
23253;BME280;11795;47.054;15.408;2023-04-26T02:46:00;97050;;;6.9;72.3
23253;BME280;11795;47.054;15.408;2023-04-26T02:48:00;97050;;;6.8;72.7
23253;BME280;11795;47.054;15.408;2023-04-26T02:50:00;97040;;;7.0;72.1
23253;BME280;11795;47.054;15.408;2023-04-26T02:52:00;97050;;;6.9;72.5
23253;BME280;11795;47.054;15.408;2023-04-26T02:54:02;97050;;;6.9;72.5
23253;BME280;11795;47.054;15.408;2023-04-26T02:56:01;97050;;;6.9;72.3
23253;BME280;11795;47.054;15.408;2023-04-26T02:58:00;97040;;;6.9;72.4
23253;BME280;11795;47.054;15.408;2023-04-26T03:00:01;97050;;;7.0;72.2
23253;BME280;11795;47.054;15.408;2023-04-26T03:02:00;97050;;;6.8;72.8
23253;BME280;11795;47.054;15.408;2023-04-26T03:04:00;97050;;;6.8;73.1
23253;BME280;11795;47.054;15.408;2023-04-26T03:06:00;97050;;;6.8;73.0
23253;BME280;11795;47.054;15.408;2023-04-26T03:08:00;97050;;;6.7;73.5
23253;BME280;11795;47.054;15.408;2023-04-26T03:10:01;97050;;;6.8;73.3
23253;BME280;11795;47.054;15.408;2023-04-26T03:12:00;97060;;;6.7;73.6
23253;BME280;11795;47.054;15.408;2023-04-26T03:14:00;97060;;;6.6;73.8
23253;BME280;11795;47.054;15.408;2023-04-26T03:16:00;97060;;;6.7;73.7
23253;BME280;11795;47.054;15.408;2023-04-26T03:18:00;97050;;;6.6;74.0
23253;BME280;11795;47.054;15.408;2023-04-26T03:20:00;97060;;;6.8;73.4
23253;BME280;11795;47.054;15.408;2023-04-26T03:22:00;97060;;;6.6;73.7
23253;BME280;11795;47.054;15.408;2023-04-26T03:24:01;97060;;;6.6;73.9
23253;BME280;11795;47.054;15.408;2023-04-26T03:26:00;97060;;;6.7;73.5
23253;BME280;11795;47.054;15.408;2023-04-26T03:28:00;97070;;;6.6;73.7
23253;BME280;11795;47.054;15.408;2023-04-26T03:30:01;97070;;;6.7;73.3
23253;BME280;11795;47.054;15.408;2023-04-26T03:32:01;97070;;;6.6;73.7
23253;BME280;11795;47.054;15.408;2023-04-26T03:34:00;97070;;;6.5;74.0
23253;BME280;11795;47.054;15.408;2023-04-26T03:36:00;97070;;;6.5;73.6
23253;BME280;11795;47.054;15.408;2023-04-26T03:38:00;97080;;;6.5;73.9
23253;BME280;11795;47.054;15.408;2023-04-26T03:40:00;97080;;;6.6;73.5
23253;BME280;11795;47.054;15.408;2023-04-26T03:42:01;97080;;;6.4;73.9
23253;BME280;11795;47.054;15.408;2023-04-26T03:44:00;97080;;;6.4;74.1
23253;BME280;11795;47.054;15.408;2023-04-26T03:46:00;97080;;;6.5;73.6
23253;BME280;11795;47.054;15.408;2023-04-26T03:48:00;97080;;;6.3;74.3
23253;BME280;11795;47.054;15.408;2023-04-26T03:50:00;97090;;;6.5;73.7
23253;BME280;11795;47.054;15.408;2023-04-26T03:52:00;97100;;;6.3;74.2
23253;BME280;11795;47.054;15.408;2023-04-26T03:54:00;97100;;;6.2;74.6
23253;BME280;11795;47.054;15.408;2023-04-26T03:56:00;97100;;;6.3;74.4
23253;BME280;11795;47.054;15.408;2023-04-26T03:58:02;97110;;;6.2;75.1
23253;BME280;11795;47.054;15.408;2023-04-26T04:00:00;97110;;;6.4;74.4
23253;BME280;11795;47.054;15.408;2023-04-26T04:02:00;97110;;;6.2;74.8
23253;BME280;11795;47.054;15.408;2023-04-26T04:04:01;97120;;;6.2;74.8
23253;BME280;11795;47.054;15.408;2023-04-26T04:06:01;97120;;;6.4;74.3
23253;BME280;11795;47.054;15.408;2023-04-26T04:08:00;97120;;;6.2;75.1
23253;BME280;11795;47.054;15.408;2023-04-26T04:10:01;97130;;;6.3;75.0
23253;BME280;11795;47.054;15.408;2023-04-26T04:12:02;97130;;;6.3;75.0
23253;BME280;11795;47.054;15.408;2023-04-26T04:14:02;97130;;;6.2;75.4
23253;BME280;11795;47.054;15.408;2023-04-26T04:16:00;97120;;;6.3;75.2
23253;BME280;11795;47.054;15.408;2023-04-26T04:18:01;97120;;;6.1;76.1
23253;BME280;11795;47.054;15.408;2023-04-26T04:20:01;97130;;;6.3;75.6
23253;BME280;11795;47.054;15.408;2023-04-26T04:22:00;97130;;;6.2;76.3
23253;BME280;11795;47.054;15.408;2023-04-26T04:24:00;97140;;;6.2;76.5
23253;BME280;11795;47.054;15.408;2023-04-26T04:26:00;97140;;;6.4;75.4
23253;BME280;11795;47.054;15.408;2023-04-26T04:28:01;97140;;;6.4;75.7
23253;BME280;11795;47.054;15.408;2023-04-26T04:30:04;97140;;;6.6;75.4
23253;BME280;11795;47.054;15.408;2023-04-26T04:32:01;97140;;;6.5;76.0
23253;BME280;11795;47.054;15.408;2023-04-26T04:34:00;97150;;;6.5;76.3
23253;BME280;11795;47.054;15.408;2023-04-26T04:36:00;97150;;;6.7;75.6
23253;BME280;11795;47.054;15.408;2023-04-26T04:38:00;97150;;;6.7;75.8
23253;BME280;11795;47.054;15.408;2023-04-26T04:40:00;97150;;;6.9;74.8
23253;BME280;11795;47.054;15.408;2023-04-26T04:42:00;97160;;;6.7;75.3
23253;BME280;11795;47.054;15.408;2023-04-26T04:44:00;97160;;;6.7;75.5
23253;BME280;11795;47.054;15.408;2023-04-26T04:46:00;97160;;;6.9;75.1
23253;BME280;11795;47.054;15.408;2023-04-26T04:48:00;97150;;;6.9;75.6
23253;BME280;11795;47.054;15.408;2023-04-26T04:50:01;97150;;;7.2;74.4
23253;BME280;11795;47.054;15.408;2023-04-26T04:52:00;97150;;;7.1;74.2
23253;BME280;11795;47.054;15.408;2023-04-26T04:54:07;97160;;;7.1;74.0
23253;BME280;11795;47.054;15.408;2023-04-26T04:56:00;97160;;;7.4;73.3
23253;BME280;11795;47.054;15.408;2023-04-26T04:58:02;97160;;;7.3;73.5
23253;BME280;11795;47.054;15.408;2023-04-26T05:00:09;97160;;;7.6;73.0
23253;BME280;11795;47.054;15.408;2023-04-26T05:02:00;97160;;;7.5;72.8
23253;BME280;11795;47.054;15.408;2023-04-26T05:04:00;97170;;;7.5;72.7
23253;BME280;11795;47.054;15.408;2023-04-26T05:06:01;97160;;;7.7;71.9
23253;BME280;11795;47.054;15.408;2023-04-26T05:08:00;97170;;;7.5;72.0
23253;BME280;11795;47.054;15.408;2023-04-26T05:10:02;97170;;;7.8;71.5
23253;BME280;11795;47.054;15.408;2023-04-26T05:12:02;97180;;;7.6;71.7
23253;BME280;11795;47.054;15.408;2023-04-26T05:14:00;97180;;;7.6;72.0
23253;BME280;11795;47.054;15.408;2023-04-26T05:16:00;97180;;;7.8;71.3
23253;BME280;11795;47.054;15.408;2023-04-26T05:18:01;97180;;;7.7;71.6
23253;BME280;11795;47.054;15.408;2023-04-26T05:20:06;97180;;;7.8;70.8
23253;BME280;11795;47.054;15.408;2023-04-26T05:22:00;97190;;;7.7;71.4
23253;BME280;11795;47.054;15.408;2023-04-26T05:24:00;97190;;;7.6;71.8
23253;BME280;11795;47.054;15.408;2023-04-26T05:26:00;97190;;;7.8;71.4
23253;BME280;11795;47.054;15.408;2023-04-26T05:28:00;97190;;;7.7;71.7
23253;BME280;11795;47.054;15.408;2023-04-26T05:30:00;97190;;;7.9;71.1
23253;BME280;11795;47.054;15.408;2023-04-26T05:32:00;97190;;;7.8;71.4
23253;BME280;11795;47.054;15.408;2023-04-26T05:34:00;97200;;;7.8;71.7
23253;BME280;11795;47.054;15.408;2023-04-26T05:36:00;97200;;;8.0;71.3
23253;BME280;11795;47.054;15.408;2023-04-26T05:38:00;97200;;;7.9;71.4
23253;BME280;11795;47.054;15.408;2023-04-26T05:40:00;97200;;;8.2;70.5
23253;BME280;11795;47.054;15.408;2023-04-26T05:42:02;97210;;;8.1;70.6
23253;BME280;11795;47.054;15.408;2023-04-26T05:44:01;97210;;;8.1;70.5
23253;BME280;11795;47.054;15.408;2023-04-26T05:46:01;97210;;;8.3;69.6
23253;BME280;11795;47.054;15.408;2023-04-26T05:48:00;97220;;;8.3;69.8
23253;BME280;11795;47.054;15.408;2023-04-26T05:50:01;97220;;;8.5;69.3
23253;BME280;11795;47.054;15.408;2023-04-26T05:52:02;97230;;;8.4;69.6
23253;BME280;11795;47.054;15.408;2023-04-26T05:54:00;97230;;;8.3;69.6
23253;BME280;11795;47.054;15.408;2023-04-26T05:56:01;97230;;;8.5;69.0
23253;BME280;11795;47.054;15.408;2023-04-26T05:58:00;97230;;;8.4;69.4
23253;BME280;11795;47.054;15.408;2023-04-26T06:00:02;97230;;;8.7;69.0
23253;BME280;11795;47.054;15.408;2023-04-26T06:02:00;97240;;;8.6;69.1
23253;BME280;11795;47.054;15.408;2023-04-26T06:04:00;97230;;;8.6;69.6
23253;BME280;11795;47.054;15.408;2023-04-26T06:06:00;97230;;;9.0;68.9
23253;BME280;11795;47.054;15.408;2023-04-26T06:08:00;97230;;;9.2;68.9
23253;BME280;11795;47.054;15.408;2023-04-26T06:10:01;97230;;;9.6;66.8
23253;BME280;11795;47.054;15.408;2023-04-26T06:12:01;97230;;;9.7;65.8
23253;BME280;11795;47.054;15.408;2023-04-26T06:14:00;97230;;;9.8;65.5
23253;BME280;11795;47.054;15.408;2023-04-26T06:16:00;97220;;;10.1;65.6
23253;BME280;11795;47.054;15.408;2023-04-26T06:18:00;97220;;;10.2;65.4
23253;BME280;11795;47.054;15.408;2023-04-26T06:20:00;97220;;;10.5;63.3
23253;BME280;11795;47.054;15.408;2023-04-26T06:22:00;97220;;;10.4;61.9
23253;BME280;11795;47.054;15.408;2023-04-26T06:24:00;97220;;;10.3;61.7
23253;BME280;11795;47.054;15.408;2023-04-26T06:26:00;97220;;;10.3;61.7
23253;BME280;11795;47.054;15.408;2023-04-26T06:28:00;97230;;;10.2;62.1
23253;BME280;11795;47.054;15.408;2023-04-26T06:30:00;97230;;;10.5;61.5
23253;BME280;11795;47.054;15.408;2023-04-26T06:32:00;97240;;;10.6;61.3
23253;BME280;11795;47.054;15.408;2023-04-26T06:34:00;97240;;;10.6;60.8
23253;BME280;11795;47.054;15.408;2023-04-26T06:36:00;97230;;;10.7;59.7
23253;BME280;11795;47.054;15.408;2023-04-26T06:38:00;97240;;;10.6;60.5
23253;BME280;11795;47.054;15.408;2023-04-26T06:40:01;97240;;;10.8;60.5
23253;BME280;11795;47.054;15.408;2023-04-26T06:42:01;97240;;;10.8;59.7
23253;BME280;11795;47.054;15.408;2023-04-26T06:44:00;97250;;;10.7;59.9
23253;BME280;11795;47.054;15.408;2023-04-26T06:46:01;97240;;;10.7;60.5
23253;BME280;11795;47.054;15.408;2023-04-26T06:48:02;97240;;;10.7;59.9
23253;BME280;11795;47.054;15.408;2023-04-26T06:50:02;97230;;;10.9;60.0
23253;BME280;11795;47.054;15.408;2023-04-26T06:52:00;97240;;;10.8;59.9
23253;BME280;11795;47.054;15.408;2023-04-26T06:54:01;97240;;;10.7;59.3
23253;BME280;11795;47.054;15.408;2023-04-26T06:56:00;97240;;;10.6;60.6
23253;BME280;11795;47.054;15.408;2023-04-26T06:58:00;97240;;;10.7;60.2
23253;BME280;11795;47.054;15.408;2023-04-26T07:00:00;97230;;;10.8;59.9
23253;BME280;11795;47.054;15.408;2023-04-26T07:02:01;97240;;;10.8;59.8
23253;BME280;11795;47.054;15.408;2023-04-26T07:04:01;97240;;;10.8;60.8
23253;BME280;11795;47.054;15.408;2023-04-26T07:06:00;97230;;;11.1;60.4
23253;BME280;11795;47.054;15.408;2023-04-26T07:08:00;97230;;;11.3;60.2
23253;BME280;11795;47.054;15.408;2023-04-26T07:10:00;97230;;;11.6;59.5
23253;BME280;11795;47.054;15.408;2023-04-26T07:12:01;97240;;;11.8;58.5
23253;BME280;11795;47.054;15.408;2023-04-26T07:14:01;97240;;;11.8;59.0
23253;BME280;11795;47.054;15.408;2023-04-26T07:16:00;97230;;;12.1;57.9
23253;BME280;11795;47.054;15.408;2023-04-26T07:18:00;97230;;;12.1;56.7
23253;BME280;11795;47.054;15.408;2023-04-26T07:20:00;97230;;;12.0;56.4
23253;BME280;11795;47.054;15.408;2023-04-26T07:22:01;97230;;;11.9;57.1
23253;BME280;11795;47.054;15.408;2023-04-26T07:24:00;97230;;;12.0;56.5
23253;BME280;11795;47.054;15.408;2023-04-26T07:26:01;97230;;;12.1;55.0
23253;BME280;11795;47.054;15.408;2023-04-26T07:28:00;97230;;;11.9;55.5
23253;BME280;11795;47.054;15.408;2023-04-26T07:30:00;97230;;;12.0;55.6
23253;BME280;11795;47.054;15.408;2023-04-26T07:32:00;97230;;;12.0;54.7
23253;BME280;11795;47.054;15.408;2023-04-26T07:34:01;97240;;;11.9;54.7
23253;BME280;11795;47.054;15.408;2023-04-26T07:36:01;97240;;;11.8;54.4
23253;BME280;11795;47.054;15.408;2023-04-26T07:38:00;97240;;;11.7;55.2
23253;BME280;11795;47.054;15.408;2023-04-26T07:40:00;97240;;;11.8;55.2
23253;BME280;11795;47.054;15.408;2023-04-26T07:42:00;97240;;;11.7;55.4
23253;BME280;11795;47.054;15.408;2023-04-26T07:44:00;97240;;;11.7;55.9
23253;BME280;11795;47.054;15.408;2023-04-26T07:46:01;97240;;;11.9;56.0
23253;BME280;11795;47.054;15.408;2023-04-26T07:48:00;97240;;;11.9;56.0
23253;BME280;11795;47.054;15.408;2023-04-26T07:50:00;97250;;;12.4;56.1
23253;BME280;11795;47.054;15.408;2023-04-26T07:52:01;97250;;;12.6;55.3
23253;BME280;11795;47.054;15.408;2023-04-26T07:54:00;97250;;;12.7;52.5
23253;BME280;11795;47.054;15.408;2023-04-26T07:56:03;97250;;;12.7;52.6
23253;BME280;11795;47.054;15.408;2023-04-26T07:58:00;97250;;;12.6;53.5
23253;BME280;11795;47.054;15.408;2023-04-26T08:00:00;97250;;;12.6;53.4
23253;BME280;11795;47.054;15.408;2023-04-26T08:02:00;97250;;;12.5;53.5
23253;BME280;11795;47.054;15.408;2023-04-26T08:04:00;97250;;;12.5;53.3
23253;BME280;11795;47.054;15.408;2023-04-26T08:06:01;97250;;;12.5;52.7
23253;BME280;11795;47.054;15.408;2023-04-26T08:08:00;97250;;;12.3;53.8
23253;BME280;11795;47.054;15.408;2023-04-26T08:10:00;97250;;;12.4;53.9
23253;BME280;11795;47.054;15.408;2023-04-26T08:12:03;97250;;;12.3;54.0
23253;BME280;11795;47.054;15.408;2023-04-26T08:14:00;97250;;;12.4;54.0
23253;BME280;11795;47.054;15.408;2023-04-26T08:16:00;97250;;;12.4;53.0
23253;BME280;11795;47.054;15.408;2023-04-26T08:18:01;97250;;;12.1;53.5
23253;BME280;11795;47.054;15.408;2023-04-26T08:20:00;97240;;;12.4;53.0
23253;BME280;11795;47.054;15.408;2023-04-26T08:22:01;97250;;;12.2;53.3
23253;BME280;11795;47.054;15.408;2023-04-26T08:24:00;97250;;;12.3;53.8
23253;BME280;11795;47.054;15.408;2023-04-26T08:26:01;97240;;;12.7;53.7
23253;BME280;11795;47.054;15.408;2023-04-26T08:28:01;97240;;;12.7;53.3
23253;BME280;11795;47.054;15.408;2023-04-26T08:30:00;97250;;;12.6;52.8
23253;BME280;11795;47.054;15.408;2023-04-26T08:32:00;97240;;;12.6;52.3
23253;BME280;11795;47.054;15.408;2023-04-26T08:34:00;97240;;;12.6;52.0
23253;BME280;11795;47.054;15.408;2023-04-26T08:36:01;97240;;;12.7;52.5
23253;BME280;11795;47.054;15.408;2023-04-26T08:38:01;97250;;;12.5;51.5
23253;BME280;11795;47.054;15.408;2023-04-26T08:40:00;97250;;;12.5;51.8
23253;BME280;11795;47.054;15.408;2023-04-26T08:42:04;97250;;;12.5;51.8
23253;BME280;11795;47.054;15.408;2023-04-26T08:44:04;97250;;;12.3;51.9
23253;BME280;11795;47.054;15.408;2023-04-26T08:46:01;97250;;;12.6;50.9
23253;BME280;11795;47.054;15.408;2023-04-26T08:48:03;97260;;;12.6;51.3
23253;BME280;11795;47.054;15.408;2023-04-26T08:50:03;97250;;;12.9;51.5
23253;BME280;11795;47.054;15.408;2023-04-26T08:52:02;97250;;;12.7;50.9
23253;BME280;11795;47.054;15.408;2023-04-26T08:54:02;97260;;;12.8;51.6
23253;BME280;11795;47.054;15.408;2023-04-26T08:56:01;97250;;;13.1;50.7
23253;BME280;11795;47.054;15.408;2023-04-26T08:58:01;97260;;;13.1;47.7
23253;BME280;11795;47.054;15.408;2023-04-26T09:00:01;97250;;;12.9;48.7
23253;BME280;11795;47.054;15.408;2023-04-26T09:02:04;97240;;;12.8;48.7
23253;BME280;11795;47.054;15.408;2023-04-26T09:04:01;97250;;;12.7;49.3
23253;BME280;11795;47.054;15.408;2023-04-26T09:06:01;97250;;;12.9;48.4
23253;BME280;11795;47.054;15.408;2023-04-26T09:08:03;97250;;;12.7;49.6
23253;BME280;11795;47.054;15.408;2023-04-26T09:10:03;97250;;;12.8;48.9
23253;BME280;11795;47.054;15.408;2023-04-26T09:12:02;97260;;;12.7;49.0
23253;BME280;11795;47.054;15.408;2023-04-26T09:14:00;97260;;;12.6;49.5
23253;BME280;11795;47.054;15.408;2023-04-26T09:16:00;97250;;;12.8;48.7
23253;BME280;11795;47.054;15.408;2023-04-26T09:18:18;97260;;;12.8;49.6
23253;BME280;11795;47.054;15.408;2023-04-26T09:20:15;97260;;;13.0;49.3
23253;BME280;11795;47.054;15.408;2023-04-26T09:22:00;97250;;;13.3;48.6
23253;BME280;11795;47.054;15.408;2023-04-26T09:24:03;97250;;;13.0;48.5
23253;BME280;11795;47.054;15.408;2023-04-26T09:26:14;97260;;;13.3;48.0
23253;BME280;11795;47.054;15.408;2023-04-26T09:28:01;97250;;;13.4;48.2
23253;BME280;11795;47.054;15.408;2023-04-26T09:30:04;97250;;;13.6;48.8
23253;BME280;11795;47.054;15.408;2023-04-26T09:32:01;97260;;;13.9;47.8
23253;BME280;11795;47.054;15.408;2023-04-26T09:34:00;97250;;;14.2;48.7
23253;BME280;11795;47.054;15.408;2023-04-26T09:36:10;97250;;;14.5;47.2
23253;BME280;11795;47.054;15.408;2023-04-26T09:38:02;97250;;;14.6;47.2
23253;BME280;11795;47.054;15.408;2023-04-26T09:40:00;97250;;;14.7;46.1
23253;BME280;11795;47.054;15.408;2023-04-26T09:42:02;97250;;;14.7;45.7
23253;BME280;11795;47.054;15.408;2023-04-26T09:44:00;97250;;;14.6;45.9
23253;BME280;11795;47.054;15.408;2023-04-26T09:46:00;97240;;;14.6;45.2
23253;BME280;11795;47.054;15.408;2023-04-26T09:48:12;97250;;;14.4;45.5
23253;BME280;11795;47.054;15.408;2023-04-26T09:50:01;97250;;;14.4;46.0
23253;BME280;11795;47.054;15.408;2023-04-26T09:52:02;97250;;;14.3;45.9
23253;BME280;11795;47.054;15.408;2023-04-26T09:54:00;97250;;;14.2;46.4
23253;BME280;11795;47.054;15.408;2023-04-26T09:56:06;97240;;;14.3;45.7
23253;BME280;11795;47.054;15.408;2023-04-26T09:58:06;97240;;;14.1;44.0
23253;BME280;11795;47.054;15.408;2023-04-26T10:00:05;97240;;;13.9;44.2
23253;BME280;11795;47.054;15.408;2023-04-26T10:02:00;97240;;;14.0;44.3
23253;BME280;11795;47.054;15.408;2023-04-26T10:04:01;97230;;;13.9;44.7
23253;BME280;11795;47.054;15.408;2023-04-26T10:06:01;97240;;;14.3;44.9
23253;BME280;11795;47.054;15.408;2023-04-26T10:08:02;97230;;;14.6;46.8
23253;BME280;11795;47.054;15.408;2023-04-26T10:10:01;97220;;;15.2;45.3
23253;BME280;11795;47.054;15.408;2023-04-26T10:12:01;97220;;;15.6;44.0
23253;BME280;11795;47.054;15.408;2023-04-26T10:14:01;97210;;;15.7;42.3
23253;BME280;11795;47.054;15.408;2023-04-26T10:16:01;97220;;;15.8;40.8
23253;BME280;11795;47.054;15.408;2023-04-26T10:18:00;97220;;;15.4;40.1
23253;BME280;11795;47.054;15.408;2023-04-26T10:20:01;97220;;;15.4;40.7
23253;BME280;11795;47.054;15.408;2023-04-26T10:22:04;97220;;;15.6;38.6
23253;BME280;11795;47.054;15.408;2023-04-26T10:24:01;97220;;;15.7;38.3
23253;BME280;11795;47.054;15.408;2023-04-26T10:26:00;97210;;;16.1;38.1
23253;BME280;11795;47.054;15.408;2023-04-26T10:28:03;97210;;;16.4;39.0
23253;BME280;11795;47.054;15.408;2023-04-26T10:30:06;97200;;;16.5;37.0
23253;BME280;11795;47.054;15.408;2023-04-26T10:32:04;97200;;;16.8;38.0
23253;BME280;11795;47.054;15.408;2023-04-26T10:34:20;97200;;;17.1;37.0
23253;BME280;11795;47.054;15.408;2023-04-26T10:36:10;97200;;;17.4;35.4
23253;BME280;11795;47.054;15.408;2023-04-26T10:38:08;97200;;;17.4;37.9
23253;BME280;11795;47.054;15.408;2023-04-26T10:40:21;97210;;;17.4;37.6
23253;BME280;11795;47.054;15.408;2023-04-26T10:42:18;97210;;;17.4;36.0
23253;BME280;11795;47.054;15.408;2023-04-26T10:48:12;97200;;;17.1;34.9
23253;BME280;11795;47.054;15.408;2023-04-26T10:50:04;97210;;;16.9;36.5
23253;BME280;11795;47.054;15.408;2023-04-26T10:52:08;97210;;;16.8;37.1
23253;BME280;11795;47.054;15.408;2023-04-26T10:54:01;97210;;;16.6;36.9
23253;BME280;11795;47.054;15.408;2023-04-26T10:56:00;97200;;;16.7;36.9
23253;BME280;11795;47.054;15.408;2023-04-26T10:58:00;97200;;;16.5;36.5
23253;BME280;11795;47.054;15.408;2023-04-26T11:00:19;97200;;;16.6;37.2
23253;BME280;11795;47.054;15.408;2023-04-26T11:02:00;97190;;;17.0;36.8
23253;BME280;11795;47.054;15.408;2023-04-26T11:04:05;97190;;;17.3;36.5
23253;BME280;11795;47.054;15.408;2023-04-26T11:06:05;97180;;;17.7;35.9
23253;BME280;11795;47.054;15.408;2023-04-26T11:08:02;97180;;;17.6;34.2
23253;BME280;11795;47.054;15.408;2023-04-26T11:10:00;97180;;;17.3;34.0
23253;BME280;11795;47.054;15.408;2023-04-26T11:12:00;97180;;;16.7;34.1
23253;BME280;11795;47.054;15.408;2023-04-26T11:14:00;97180;;;16.3;34.7
23253;BME280;11795;47.054;15.408;2023-04-26T11:16:04;97180;;;16.3;35.2
23253;BME280;11795;47.054;15.408;2023-04-26T11:18:01;97180;;;16.1;35.5
23253;BME280;11795;47.054;15.408;2023-04-26T11:20:04;97180;;;16.0;35.4